sensor_id;sensor_type;location;lat;lon;timestamp;pressure;altitude;pressure_sealevel;temperature;humidity
5350;BME280;2697;42.144;24.794;2024-01-15T00:01:07;39789.59;;;-4.03;100.00
5350;BME280;2697;42.144;24.794;2024-01-15T00:03:33;39133.47;;;-3.94;100.00
5350;BME280;2697;42.144;24.794;2024-01-15T00:05:58;38474.97;;;-3.89;100.00
5350;BME280;2697;42.144;24.794;2024-01-15T00:08:24;38142.72;;;-3.91;100.00
5350;BME280;2697;42.144;24.794;2024-01-15T00:10:49;37812.22;;;-3.91;100.00
5350;BME280;2697;42.144;24.794;2024-01-15T00:13:14;37484.91;;;-3.85;100.00
5350;BME280;2697;42.144;24.794;2024-01-15T00:15:40;37156.97;;;-3.81;100.00
5350;BME280;2697;42.144;24.794;2024-01-15T00:18:05;37156.97;;;-3.81;100.00
5350;BME280;2697;42.144;24.794;2024-01-15T00:20:31;37157.59;;;-3.80;100.00
5350;BME280;2697;42.144;24.794;2024-01-15T00:22:56;36504.13;;;-3.66;100.00
5350;BME280;2697;42.144;24.794;2024-01-15T00:25:22;35846.13;;;-3.60;100.00
5350;BME280;2697;42.144;24.794;2024-01-15T00:27:48;35515.91;;;-3.59;100.00
5350;BME280;2697;42.144;24.794;2024-01-15T00:30:13;35186.59;;;-3.57;100.00
5350;BME280;2697;42.144;24.794;2024-01-15T00:32:40;34858.22;;;-3.53;100.00
5350;BME280;2697;42.144;24.794;2024-01-15T00:35:05;34527.41;;;-3.53;100.00
5350;BME280;2697;42.144;24.794;2024-01-15T00:37:31;34860.31;;;-3.49;100.00
5350;BME280;2697;42.144;24.794;2024-01-15T00:39:56;34528.91;;;-3.50;100.00
5350;BME280;2697;42.144;24.794;2024-01-15T00:42:21;33873.22;;;-3.40;100.00
5350;BME280;2697;42.144;24.794;2024-01-15T00:44:47;33540.13;;;-3.44;100.00
5350;BME280;2697;42.144;24.794;2024-01-15T00:47:12;33867.94;;;-3.49;100.00
5350;BME280;2697;42.144;24.794;2024-01-15T00:49:38;33869.69;;;-3.46;100.00
5350;BME280;2697;42.144;24.794;2024-01-15T00:52:03;34204.63;;;-3.39;100.00
5350;BME280;2697;42.144;24.794;2024-01-15T00:54:29;33874.38;;;-3.38;100.00
5350;BME280;2697;42.144;24.794;2024-01-15T00:56:54;34857.91;;;-3.53;100.00
5350;BME280;2697;42.144;24.794;2024-01-15T00:59:20;31896.38;;;-3.26;100.00
5350;BME280;2697;42.144;24.794;2024-01-15T01:01:46;31891.13;;;-3.36;100.00
5350;BME280;2697;42.144;24.794;2024-01-15T01:04:11;31890.88;;;-3.36;100.00
5350;BME280;2697;42.144;24.794;2024-01-15T01:06:37;32218.47;;;-3.42;100.00
5350;BME280;2697;42.144;24.794;2024-01-15T01:09:02;33197.06;;;-3.66;100.00
5350;BME280;2697;42.144;24.794;2024-01-15T01:11:28;33196.47;;;-3.67;100.00
5350;BME280;2697;42.144;24.794;2024-01-15T01:13:53;33858.00;;;-3.66;100.00
5350;BME280;2697;42.144;24.794;2024-01-15T01:16:19;34521.47;;;-3.63;100.00
5350;BME280;2697;42.144;24.794;2024-01-15T01:18:44;34853.09;;;-3.61;100.00
5350;BME280;2697;42.144;24.794;2024-01-15T01:21:10;35510.41;;;-3.68;100.00
5350;BME280;2697;42.144;24.794;2024-01-15T01:23:35;36168.56;;;-3.74;100.00
5350;BME280;2697;42.144;24.794;2024-01-15T01:26:00;36497.19;;;-3.78;100.00
5350;BME280;2697;42.144;24.794;2024-01-15T01:28:26;37475.56;;;-4.00;100.00
5350;BME280;2697;42.144;24.794;2024-01-15T01:30:51;37459.41;;;-4.25;100.00
5350;BME280;2697;42.144;24.794;2024-01-15T01:33:16;37775.09;;;-4.49;100.00
5350;BME280;2697;42.144;24.794;2024-01-15T01:35:42;37114.72;;;-4.48;100.00
5350;BME280;2697;42.144;24.794;2024-01-15T01:38:08;37105.78;;;-4.62;100.00
5350;BME280;2697;42.144;24.794;2024-01-15T01:40:34;36449.09;;;-4.55;100.00
5350;BME280;2697;42.144;24.794;2024-01-15T01:42:59;35469.38;;;-4.37;100.00
5350;BME280;2697;42.144;24.794;2024-01-15T01:45:24;36131.50;;;-4.35;100.00
5350;BME280;2697;42.144;24.794;2024-01-15T01:47:50;36796.28;;;-4.28;100.00
5350;BME280;2697;42.144;24.794;2024-01-15T01:50:16;37785.84;;;-4.32;100.00
5350;BME280;2697;42.144;24.794;2024-01-15T01:52:42;39103.84;;;-4.39;100.00
5350;BME280;2697;42.144;24.794;2024-01-15T01:55:09;40413.97;;;-4.58;100.00
5350;BME280;2697;42.144;24.794;2024-01-15T01:57:36;41075.44;;;-4.58;100.00
5350;BME280;2697;42.144;24.794;2024-01-15T02:00:03;42058.44;;;-4.71;100.00
5350;BME280;2697;42.144;24.794;2024-01-15T02:02:32;40740.50;;;-4.64;100.00
5350;BME280;2697;42.144;24.794;2024-01-15T02:04:57;37129.13;;;-4.25;100.00
5350;BME280;2697;42.144;24.794;2024-01-15T02:07:23;35150.22;;;-4.18;100.00
5350;BME280;2697;42.144;24.794;2024-01-15T02:09:49;33513.50;;;-3.91;100.00
5350;BME280;2697;42.144;24.794;2024-01-15T02:12:15;32196.19;;;-3.83;100.00
5350;BME280;2697;42.144;24.794;2024-01-15T02:14:41;31860.00;;;-3.93;100.00
5350;BME280;2697;42.144;24.794;2024-01-15T02:17:06;31851.75;;;-4.09;100.00
5350;BME280;2697;42.144;24.794;2024-01-15T02:19:31;32170.63;;;-4.30;100.00
5350;BME280;2697;42.144;24.794;2024-01-15T02:21:57;31517.69;;;-4.16;100.00
5350;BME280;2697;42.144;24.794;2024-01-15T02:24:22;31192.38;;;-4.07;100.00
5350;BME280;2697;42.144;24.794;2024-01-15T02:26:48;32508.66;;;-4.15;100.00
5350;BME280;2697;42.144;24.794;2024-01-15T02:29:14;33162.69;;;-4.27;100.00
5350;BME280;2697;42.144;24.794;2024-01-15T02:31:40;33167.84;;;-4.18;100.00
5350;BME280;2697;42.144;24.794;2024-01-15T02:34:06;33492.38;;;-4.28;100.00
5350;BME280;2697;42.144;24.794;2024-01-15T02:36:31;32837.81;;;-4.17;100.00
5350;BME280;2697;42.144;24.794;2024-01-15T02:38:57;33163.53;;;-4.25;100.00
5350;BME280;2697;42.144;24.794;2024-01-15T02:41:22;33817.13;;;-4.38;100.00
5350;BME280;2697;42.144;24.794;2024-01-15T02:43:47;34141.78;;;-4.47;100.00
5350;BME280;2697;42.144;24.794;2024-01-15T02:46:13;34796.03;;;-4.58;100.00
5350;BME280;2697;42.144;24.794;2024-01-15T02:48:38;34473.53;;;-4.45;100.00
5350;BME280;2697;42.144;24.794;2024-01-15T02:51:04;34147.69;;;-4.37;100.00
5350;BME280;2697;42.144;24.794;2024-01-15T02:53:29;33162.97;;;-4.26;100.00
5350;BME280;2697;42.144;24.794;2024-01-15T02:55:54;31193.19;;;-4.05;100.00
5350;BME280;2697;42.144;24.794;2024-01-15T02:58:21;30212.09;;;-3.87;100.00
5350;BME280;2697;42.144;24.794;2024-01-15T03:00:46;29883.41;;;-3.84;100.00
5350;BME280;2697;42.144;24.794;2024-01-15T03:03:12;29886.25;;;-3.78;100.00
5350;BME280;2697;42.144;24.794;2024-01-15T03:05:38;29558.31;;;-3.74;100.00
5350;BME280;2697;42.144;24.794;2024-01-15T03:08:03;28579.59;;;-3.49;100.00
5350;BME280;2697;42.144;24.794;2024-01-15T03:10:29;30218.09;;;-3.75;100.00
5350;BME280;2697;42.144;24.794;2024-01-15T03:12:54;31196.97;;;-3.98;100.00
5350;BME280;2697;42.144;24.794;2024-01-15T03:15:19;31522.59;;;-4.07;100.00
5350;BME280;2697;42.144;24.794;2024-01-15T03:17:45;31192.13;;;-4.07;100.00
5350;BME280;2697;42.144;24.794;2024-01-15T03:20:11;30862.72;;;-4.06;100.00
5350;BME280;2697;42.144;24.794;2024-01-15T03:22:36;30203.97;;;-4.03;100.00
5350;BME280;2697;42.144;24.794;2024-01-15T03:25:02;29548.59;;;-3.93;100.00
5350;BME280;2697;42.144;24.794;2024-01-15T03:27:28;30201.63;;;-4.07;100.00
5350;BME280;2697;42.144;24.794;2024-01-15T03:29:54;30528.31;;;-4.14;100.00
5350;BME280;2697;42.144;24.794;2024-01-15T03:32:19;30851.78;;;-4.26;100.00
5350;BME280;2697;42.144;24.794;2024-01-15T03:34:45;30854.19;;;-4.22;100.00
5350;BME280;2697;42.144;24.794;2024-01-15T03:37:12;30852.84;;;-4.24;100.00
5350;BME280;2697;42.144;24.794;2024-01-15T03:39:37;30524.88;;;-4.20;100.00
5350;BME280;2697;42.144;24.794;2024-01-15T03:42:03;30201.09;;;-4.08;100.00
5350;BME280;2697;42.144;24.794;2024-01-15T03:44:29;30202.41;;;-4.06;100.00
5350;BME280;2697;42.144;24.794;2024-01-15T03:46:54;31188.34;;;-4.14;100.00
5350;BME280;2697;42.144;24.794;2024-01-15T03:49:20;31196.44;;;-3.99;100.00
5350;BME280;2697;42.144;24.794;2024-01-15T03:51:45;30871.53;;;-3.89;100.00
5350;BME280;2697;42.144;24.794;2024-01-15T03:54:10;30548.13;;;-3.76;100.00
5350;BME280;2697;42.144;24.794;2024-01-15T03:56:36;31202.91;;;-3.87;100.00
5350;BME280;2697;42.144;24.794;2024-01-15T03:59:01;31534.31;;;-3.85;100.00
5350;BME280;2697;42.144;24.794;2024-01-15T04:01:26;33180.72;;;-3.95;100.00
5350;BME280;2697;42.144;24.794;2024-01-15T04:03:52;34827.84;;;-4.04;100.00
5350;BME280;2697;42.144;24.794;2024-01-15T04:06:17;36146.44;;;-4.10;100.00
5350;BME280;2697;42.144;24.794;2024-01-15T04:08:43;37462.00;;;-4.21;100.00
5350;BME280;2697;42.144;24.794;2024-01-15T04:11:08;37457.81;;;-4.28;100.00
5350;BME280;2697;42.144;24.794;2024-01-15T04:13:33;36472.69;;;-4.17;100.00
5350;BME280;2697;42.144;24.794;2024-01-15T04:16:00;36811.53;;;-4.04;100.00
5350;BME280;2697;42.144;24.794;2024-01-15T04:18:25;38124.03;;;-4.20;100.00
5350;BME280;2697;42.144;24.794;2024-01-15T04:20:51;37470.41;;;-4.08;100.00
5350;BME280;2697;42.144;24.794;2024-01-15T04:23:16;38127.97;;;-4.14;100.00
5350;BME280;2697;42.144;24.794;2024-01-15T04:25:42;38776.16;;;-4.35;100.00
5350;BME280;2697;42.144;24.794;2024-01-15T04:28:08;39419.97;;;-4.61;100.00
5350;BME280;2697;42.144;24.794;2024-01-15T04:30:34;39740.31;;;-4.76;100.00
5350;BME280;2697;42.144;24.794;2024-01-15T04:32:59;39405.38;;;-4.83;100.00
5350;BME280;2697;42.144;24.794;2024-01-15T04:35:25;40053.31;;;-5.02;100.00
5350;BME280;2697;42.144;24.794;2024-01-15T04:37:50;39391.47;;;-5.04;100.00
5350;BME280;2697;42.144;24.794;2024-01-15T04:40:15;38740.78;;;-4.89;100.00
5350;BME280;2697;42.144;24.794;2024-01-15T04:42:41;38407.75;;;-4.93;100.00
5350;BME280;2697;42.144;24.794;2024-01-15T04:45:06;38727.44;;;-5.09;100.00
5350;BME280;2697;42.144;24.794;2024-01-15T04:47:32;38398.50;;;-5.07;100.00
5350;BME280;2697;42.144;24.794;2024-01-15T04:49:57;38063.66;;;-5.14;100.00
5350;BME280;2697;42.144;24.794;2024-01-15T04:52:22;37739.97;;;-5.04;100.00
5350;BME280;2697;42.144;24.794;2024-01-15T04:54:48;38072.19;;;-5.01;100.00
5350;BME280;2697;42.144;24.794;2024-01-15T04:57:14;39054.38;;;-5.14;100.00
5350;BME280;2697;42.144;24.794;2024-01-15T04:59:40;39708.84;;;-5.23;100.00
5350;BME280;2697;42.144;24.794;2024-01-15T05:02:05;40025.38;;;-5.43;100.00
5350;BME280;2697;42.144;24.794;2024-01-15T05:04:31;38386.25;;;-5.26;100.00
5350;BME280;2697;42.144;24.794;2024-01-15T05:06:56;39367.75;;;-5.39;100.00
5350;BME280;2697;42.144;24.794;2024-01-15T05:09:21;39041.59;;;-5.33;100.00
5350;BME280;2697;42.144;24.794;2024-01-15T05:11:47;38715.09;;;-5.28;100.00
5350;BME280;2697;42.144;24.794;2024-01-15T05:14:12;38722.78;;;-5.16;100.00
5350;BME280;2697;42.144;24.794;2024-01-15T05:16:38;39382.31;;;-5.18;100.00
5350;BME280;2697;42.144;24.794;2024-01-15T05:19:04;39389.44;;;-5.07;100.00
5350;BME280;2697;42.144;24.794;2024-01-15T05:21:29;39725.94;;;-4.98;100.00
5350;BME280;2697;42.144;24.794;2024-01-15T05:23:55;40710.38;;;-5.08;100.00
5350;BME280;2697;42.144;24.794;2024-01-15T05:26:20;41695.41;;;-5.17;100.00
5350;BME280;2697;42.144;24.794;2024-01-15T05:28:45;41038.72;;;-5.11;100.00
5350;BME280;2697;42.144;24.794;2024-01-15T05:31:11;40715.28;;;-5.01;100.00
5350;BME280;2697;42.144;24.794;2024-01-15T05:33:37;41699.00;;;-5.12;100.00
5350;BME280;2697;42.144;24.794;2024-01-15T05:36:02;43008.34;;;-5.30;100.00
5350;BME280;2697;42.144;24.794;2024-01-15T05:38:28;42015.06;;;-5.32;100.00
5350;BME280;2697;42.144;24.794;2024-01-15T05:40:53;40048.81;;;-5.09;100.00
5350;BME280;2697;42.144;24.794;2024-01-15T05:43:19;40709.31;;;-5.09;100.00
5350;BME280;2697;42.144;24.794;2024-01-15T05:45:44;42682.59;;;-5.23;100.00
5350;BME280;2697;42.144;24.794;2024-01-15T05:48:10;43013.53;;;-5.23;100.00
5350;BME280;2697;42.144;24.794;2024-01-15T05:50:35;43337.78;;;-5.31;100.00
5350;BME280;2697;42.144;24.794;2024-01-15T05:53:01;41373.13;;;-5.05;100.00
5350;BME280;2697;42.144;24.794;2024-01-15T05:55:27;42033.88;;;-5.06;100.00
5350;BME280;2697;42.144;24.794;2024-01-15T05:57:53;41382.72;;;-4.92;100.00
5350;BME280;2697;42.144;24.794;2024-01-15T06:00:20;41386.28;;;-4.87;100.00
5350;BME280;2697;42.144;24.794;2024-01-15T06:02:45;40404.94;;;-4.71;100.00
5350;BME280;2697;42.144;24.794;2024-01-15T06:05:11;39415.53;;;-4.68;100.00
5350;BME280;2697;42.144;24.794;2024-01-15T06:07:36;39413.50;;;-4.71;100.00
5350;BME280;2697;42.144;24.794;2024-01-15T06:10:02;39416.22;;;-4.67;100.00
5350;BME280;2697;42.144;24.794;2024-01-15T06:12:28;39416.22;;;-4.67;100.00
5350;BME280;2697;42.144;24.794;2024-01-15T06:14:53;39085.66;;;-4.67;100.00
5350;BME280;2697;42.144;24.794;2024-01-15T06:17:19;37105.78;;;-4.62;100.00
5350;BME280;2697;42.144;24.794;2024-01-15T06:19:44;38105.63;;;-4.49;100.00
5350;BME280;2697;42.144;24.794;2024-01-15T06:22:09;36795.66;;;-4.30;100.00
5350;BME280;2697;42.144;24.794;2024-01-15T06:24:35;36797.88;;;-4.26;100.00
5350;BME280;2697;42.144;24.794;2024-01-15T06:27:00;37125.59;;;-4.31;100.00
5350;BME280;2697;42.144;24.794;2024-01-15T06:29:26;37457.16;;;-4.29;100.00
5350;BME280;2697;42.144;24.794;2024-01-15T06:31:52;37132.00;;;-4.20;100.00
5350;BME280;2697;42.144;24.794;2024-01-15T06:34:17;36480.84;;;-4.04;100.00
5350;BME280;2697;42.144;24.794;2024-01-15T06:36:43;36152.69;;;-4.00;100.00
5350;BME280;2697;42.144;24.794;2024-01-15T06:39:08;36482.72;;;-4.01;100.00
5350;BME280;2697;42.144;24.794;2024-01-15T06:41:35;36158.91;;;-3.90;100.00
5350;BME280;2697;42.144;24.794;2024-01-15T06:44:00;35834.41;;;-3.80;100.00
5350;BME280;2697;42.144;24.794;2024-01-15T06:46:26;34850.69;;;-3.65;100.00
5350;BME280;2697;42.144;24.794;2024-01-15T06:48:51;35183.28;;;-3.62;100.00
5350;BME280;2697;42.144;24.794;2024-01-15T06:51:17;34856.09;;;-3.56;100.00
5350;BME280;2697;42.144;24.794;2024-01-15T06:53:42;33870.88;;;-3.44;100.00
5350;BME280;2697;42.144;24.794;2024-01-15T06:56:08;34195.75;;;-3.54;100.00
5350;BME280;2697;42.144;24.794;2024-01-15T06:58:33;34196.94;;;-3.52;100.00
5350;BME280;2697;42.144;24.794;2024-01-15T07:00:59;34528.00;;;-3.52;100.00
5350;BME280;2697;42.144;24.794;2024-01-15T07:03:24;34527.72;;;-3.52;100.00
5350;BME280;2697;42.144;24.794;2024-01-15T07:05:50;33217.13;;;-3.30;100.00
5350;BME280;2697;42.144;24.794;2024-01-15T07:08:15;33873.78;;;-3.39;100.00
5350;BME280;2697;42.144;24.794;2024-01-15T07:10:40;33874.38;;;-3.38;100.00
5350;BME280;2697;42.144;24.794;2024-01-15T07:13:06;32888.03;;;-3.27;100.00
5350;BME280;2697;42.144;24.794;2024-01-15T07:15:31;32559.25;;;-3.24;100.00
5350;BME280;2697;42.144;24.794;2024-01-15T07:17:57;32229.59;;;-3.22;100.00
5350;BME280;2697;42.144;24.794;2024-01-15T07:20:22;31898.88;;;-3.22;100.00
5350;BME280;2697;42.144;24.794;2024-01-15T07:22:47;31243.13;;;-3.11;100.00
5350;BME280;2697;42.144;24.794;2024-01-15T07:25:13;31248.81;;;-3.00;100.00
5350;BME280;2697;42.144;24.794;2024-01-15T07:27:38;30603.44;;;-2.69;100.00
5350;BME280;2697;42.144;24.794;2024-01-15T07:30:06;33235.50;;;-2.98;100.00
5350;BME280;2697;42.144;24.794;2024-01-15T07:32:33;34227.03;;;-3.00;100.00
5350;BME280;2697;42.144;24.794;2024-01-15T07:34:58;32593.56;;;-2.62;100.00
5350;BME280;2697;42.144;24.794;2024-01-15T07:37:24;34595.06;;;-2.37;100.00
5350;BME280;2697;42.144;24.794;2024-01-15T07:39:50;34934.63;;;-2.23;100.00
5350;BME280;2697;42.144;24.794;2024-01-15T07:42:15;35941.41;;;-2.04;100.00
5350;BME280;2697;42.144;24.794;2024-01-15T07:44:40;34615.97;;;-2.02;100.00
5350;BME280;2697;42.144;24.794;2024-01-15T07:47:06;32315.19;;;-1.65;100.00
5350;BME280;2697;42.144;24.794;2024-01-15T07:49:31;30673.63;;;-1.34;100.00
5350;BME280;2697;42.144;24.794;2024-01-15T07:51:57;29356.16;;;-1.17;100.00
5350;BME280;2697;42.144;24.794;2024-01-15T07:54:22;30030.91;;;-0.94;100.00
5350;BME280;2697;42.144;24.794;2024-01-15T07:56:58;32034.16;;;-0.72;100.00
5350;BME280;2697;42.144;24.794;2024-01-15T07:59:24;37673.81;;;-0.88;100.00
5350;BME280;2697;42.144;24.794;2024-01-15T08:01:50;42657.38;;;-0.98;100.00
5350;BME280;2697;42.144;24.794;2024-01-15T08:04:15;49975.94;;;-1.11;100.00
5350;BME280;2697;42.144;24.794;2024-01-15T08:06:40;50329.16;;;-0.88;100.00
5350;BME280;2697;42.144;24.794;2024-01-15T08:09:06;58718.13;;;-0.46;100.00
5350;BME280;2697;42.144;24.794;2024-01-15T08:11:32;96058.53;;;-0.22;100.00
5350;BME280;2697;42.144;24.794;2024-01-15T08:13:57;105863.56;;;-0.23;100.00
5350;BME280;2697;42.144;24.794;2024-01-15T08:16:23;94387.81;;;-0.11;100.00
5350;BME280;2697;42.144;24.794;2024-01-15T08:18:50;94766.72;;;0.15;100.00
5350;BME280;2697;42.144;24.794;2024-01-15T08:21:15;124611.53;;;0.17;100.00
5350;BME280;2697;42.144;24.794;2024-01-15T08:23:41;136888.38;;;0.19;100.00
5350;BME280;2697;42.144;24.794;2024-01-15T08:26:07;140608.03;;;0.34;100.00
5350;BME280;2697;42.144;24.794;2024-01-15T08:28:32;152771.91;;;0.79;100.00
5350;BME280;2697;42.144;24.794;2024-01-15T08:30:58;152766.69;;;0.77;100.00
5350;BME280;2697;42.144;24.794;2024-01-15T08:33:23;152788.91;;;0.85;100.00
5350;BME280;2697;42.144;24.794;2024-01-15T08:35:48;152788.91;;;0.85;100.00
5350;BME280;2697;42.144;24.794;2024-01-15T08:38:14;152869.88;;;1.17;100.00
5350;BME280;2697;42.144;24.794;2024-01-15T08:40:39;152932.59;;;1.41;100.00
5350;BME280;2697;42.144;24.794;2024-01-15T08:43:04;152903.84;;;1.30;100.00
5350;BME280;2697;42.144;24.794;2024-01-15T08:45:32;152880.34;;;1.21;100.00
5350;BME280;2697;42.144;24.794;2024-01-15T08:47:57;153028.00;;;1.79;100.00
5350;BME280;2697;42.144;24.794;2024-01-15T08:50:22;153065.88;;;1.93;100.00
5350;BME280;2697;42.144;24.794;2024-01-15T08:52:48;153029.31;;;1.79;100.00
5350;BME280;2697;42.144;24.794;2024-01-15T08:55:13;153107.72;;;2.10;100.00
5350;BME280;2697;42.144;24.794;2024-01-15T08:57:38;153230.63;;;2.57;100.00
5350;BME280;2697;42.144;24.794;2024-01-15T09:00:05;153311.78;;;2.89;100.00
5350;BME280;2697;42.144;24.794;2024-01-15T09:02:34;153204.47;;;2.47;100.00
5350;BME280;2697;42.144;24.794;2024-01-15T09:05:00;153124.72;;;2.16;100.00
5350;BME280;2697;42.144;24.794;2024-01-15T09:07:25;153161.31;;;2.31;100.00
5350;BME280;2697;42.144;24.794;2024-01-15T09:09:52;153126.03;;;2.17;100.00
5350;BME280;2697;42.144;24.794;2024-01-15T09:12:18;153194.03;;;2.43;100.00
5350;BME280;2697;42.144;24.794;2024-01-15T09:14:44;153207.09;;;2.48;100.00
5350;BME280;2697;42.144;24.794;2024-01-15T09:17:09;153216.28;;;2.52;100.00
5350;BME280;2697;42.144;24.794;2024-01-15T09:19:35;153082.88;;;2.00;100.00
5350;BME280;2697;42.144;24.794;2024-01-15T09:22:00;153203.19;;;2.47;100.00
5350;BME280;2697;42.144;24.794;2024-01-15T09:24:26;153309.09;;;2.88;100.00
5350;BME280;2697;42.144;24.794;2024-01-15T09:26:51;153370.63;;;3.12;100.00
5350;BME280;2697;42.144;24.794;2024-01-15T09:29:17;153378.47;;;3.15;100.00
5350;BME280;2697;42.144;24.794;2024-01-15T09:31:43;153442.63;;;3.40;100.00
5350;BME280;2697;42.144;24.794;2024-01-15T09:34:09;153432.16;;;3.36;100.00
5350;BME280;2697;42.144;24.794;2024-01-15T09:36:44;153366.72;;;3.10;100.00
5350;BME280;2697;42.144;24.794;2024-01-15T09:39:09;153485.81;;;3.57;100.00
5350;BME280;2697;42.144;24.794;2024-01-15T09:41:36;153429.50;;;3.35;100.00
5350;BME280;2697;42.144;24.794;2024-01-15T09:44:03;153526.41;;;3.72;100.00
5350;BME280;2697;42.144;24.794;2024-01-15T09:46:28;153492.34;;;3.59;100.00
5350;BME280;2697;42.144;24.794;2024-01-15T09:48:54;153580.09;;;3.93;100.00
5350;BME280;2697;42.144;24.794;2024-01-15T09:51:20;153560.44;;;3.86;100.00
5350;BME280;2697;42.144;24.794;2024-01-15T09:53:46;153610.19;;;4.05;100.00
5350;BME280;2697;42.144;24.794;2024-01-15T09:56:13;153633.78;;;4.14;100.00
5350;BME280;2697;42.144;24.794;2024-01-15T09:58:39;153483.22;;;3.56;100.00
5350;BME280;2697;42.144;24.794;2024-01-15T10:01:07;153462.25;;;3.48;100.00
5350;BME280;2697;42.144;24.794;2024-01-15T10:03:33;153492.34;;;3.59;100.00
5350;BME280;2697;42.144;24.794;2024-01-15T10:05:59;153622.00;;;4.10;100.00
5350;BME280;2697;42.144;24.794;2024-01-15T10:08:25;153530.34;;;3.74;100.00
5350;BME280;2697;42.144;24.794;2024-01-15T10:10:50;153552.59;;;3.83;100.00
5350;BME280;2697;42.144;24.794;2024-01-15T10:13:16;153581.41;;;3.94;100.00
5350;BME280;2697;42.144;24.794;2024-01-15T10:15:45;153615.44;;;4.07;100.00
5350;BME280;2697;42.144;24.794;2024-01-15T10:18:12;153663.88;;;4.26;100.00
5350;BME280;2697;42.144;24.794;2024-01-15T10:20:37;153598.44;;;4.00;100.00
5350;BME280;2697;42.144;24.794;2024-01-15T10:23:03;153615.44;;;4.07;100.00
5350;BME280;2697;42.144;24.794;2024-01-15T10:25:29;153616.72;;;4.08;100.00
5350;BME280;2697;42.144;24.794;2024-01-15T10:28:03;153639.00;;;4.16;100.00
5350;BME280;2697;42.144;24.794;2024-01-15T10:30:29;153642.94;;;4.18;100.00
5350;BME280;2697;42.144;24.794;2024-01-15T10:32:59;153713.66;;;4.45;100.00
5350;BME280;2697;42.144;24.794;2024-01-15T10:35:33;153722.88;;;4.49;100.00
5350;BME280;2697;42.144;24.794;2024-01-15T10:37:59;153703.19;;;4.41;100.00
5350;BME280;2697;42.144;24.794;2024-01-15T10:40:25;153724.16;;;4.49;100.00
5350;BME280;2697;42.144;24.794;2024-01-15T10:42:50;153794.94;;;4.77;100.00
5350;BME280;2697;42.144;24.794;2024-01-15T10:45:17;153878.78;;;5.09;97.91
5350;BME280;2697;42.144;24.794;2024-01-15T10:47:43;153923.38;;;5.27;97.31
5350;BME280;2697;42.144;24.794;2024-01-15T10:50:09;153956.13;;;5.39;96.65
5350;BME280;2697;42.144;24.794;2024-01-15T10:52:36;153956.13;;;5.39;94.38
5350;BME280;2697;42.144;24.794;2024-01-15T10:55:03;154020.38;;;5.64;95.21
5350;BME280;2697;42.144;24.794;2024-01-15T10:57:29;154210.66;;;6.38;90.32
5350;BME280;2697;42.144;24.794;2024-01-15T10:59:55;154089.97;;;5.91;100.00
5350;BME280;2697;42.144;24.794;2024-01-15T11:02:21;154398.38;;;7.11;86.28
5350;BME280;2697;42.144;24.794;2024-01-15T11:04:46;154296.00;;;6.71;80.58
5350;BME280;2697;42.144;24.794;2024-01-15T11:07:13;154276.28;;;6.64;81.03
5350;BME280;2697;42.144;24.794;2024-01-15T11:09:39;154154.25;;;6.16;78.83
5350;BME280;2697;42.144;24.794;2024-01-15T11:12:10;154181.81;;;6.27;78.36
5350;BME280;2697;42.144;24.794;2024-01-15T11:14:39;154171.28;;;6.23;79.85
5350;BME280;2697;42.144;24.794;2024-01-15T11:17:05;154173.94;;;6.24;79.89
5350;BME280;2697;42.144;24.794;2024-01-15T11:22:07;153873.56;;;5.07;81.09
5350;BME280;2697;42.144;24.794;2024-01-15T11:24:40;154061.06;;;5.80;78.99
5350;BME280;2697;42.144;24.794;2024-01-15T11:27:07;153943.03;;;5.34;81.58
5350;BME280;2697;42.144;24.794;2024-01-15T11:29:36;153974.50;;;5.47;81.76
5350;BME280;2697;42.144;24.794;2024-01-15T11:34:59;154008.63;;;5.60;83.18
5350;BME280;2697;42.144;24.794;2024-01-15T11:38:15;153954.81;;;5.39;87.75
5350;BME280;2697;42.144;24.794;2024-01-15T11:40:17;153970.56;;;5.45;89.59
5350;BME280;2697;42.144;24.794;2024-01-15T11:42:44;153954.81;;;5.39;87.09
5350;BME280;2697;42.144;24.794;2024-01-15T11:45:10;153977.09;;;5.48;85.81
5350;BME280;2697;42.144;24.794;2024-01-15T11:50:22;154047.94;;;5.75;87.27
5350;BME280;2697;42.144;24.794;2024-01-15T11:53:01;153992.84;;;5.54;88.38
5350;BME280;2697;42.144;24.794;2024-01-15T11:55:30;154040.06;;;5.72;87.30
5350;BME280;2697;42.144;24.794;2024-01-15T11:58:00;154042.69;;;5.73;86.42
5350;BME280;2697;42.144;24.794;2024-01-15T12:00:26;154045.31;;;5.74;87.10
5350;BME280;2697;42.144;24.794;2024-01-15T12:02:52;154051.84;;;5.77;85.83
5350;BME280;2697;42.144;24.794;2024-01-15T12:05:19;154034.84;;;5.70;85.70
5350;BME280;2697;42.144;24.794;2024-01-15T12:07:46;154024.31;;;5.66;88.79
5350;BME280;2697;42.144;24.794;2024-01-15T12:10:20;154033.53;;;5.69;89.48
5350;BME280;2697;42.144;24.794;2024-01-15T12:13:05;154053.22;;;5.77;91.09
5350;BME280;2697;42.144;24.794;2024-01-15T12:15:34;153991.56;;;5.53;91.13
5350;BME280;2697;42.144;24.794;2024-01-15T12:18:01;153897.16;;;5.17;95.97
5350;BME280;2697;42.144;24.794;2024-01-15T12:20:28;153876.16;;;5.08;97.76
5350;BME280;2697;42.144;24.794;2024-01-15T12:22:54;153874.84;;;5.08;97.68
5350;BME280;2697;42.144;24.794;2024-01-15T12:25:23;153785.72;;;4.73;100.00
5350;BME280;2697;42.144;24.794;2024-01-15T12:27:49;153759.53;;;4.63;100.00
5350;BME280;2697;42.144;24.794;2024-01-15T12:30:15;153741.22;;;4.56;100.00
5350;BME280;2697;42.144;24.794;2024-01-15T12:32:41;153712.34;;;4.45;100.00
5350;BME280;2697;42.144;24.794;2024-01-15T12:35:07;153793.63;;;4.76;100.00
5350;BME280;2697;42.144;24.794;2024-01-15T12:37:35;153743.84;;;4.57;99.64
5350;BME280;2697;42.144;24.794;2024-01-15T12:40:01;153722.88;;;4.49;99.53
5350;BME280;2697;42.144;24.794;2024-01-15T12:42:28;153783.13;;;4.72;98.77
5350;BME280;2697;42.144;24.794;2024-01-15T12:44:56;153825.06;;;4.89;98.72
5350;BME280;2697;42.144;24.794;2024-01-15T12:47:22;153894.53;;;5.15;96.83
5350;BME280;2697;42.144;24.794;2024-01-15T12:49:47;153880.09;;;5.10;93.84
5350;BME280;2697;42.144;24.794;2024-01-15T12:52:15;153822.44;;;4.88;97.25
5350;BME280;2697;42.144;24.794;2024-01-15T12:54:41;153804.09;;;4.80;96.07
5350;BME280;2697;42.144;24.794;2024-01-15T12:57:06;153800.16;;;4.79;97.97
5350;BME280;2697;42.144;24.794;2024-01-15T12:59:31;153809.31;;;4.82;96.52
5350;BME280;2697;42.144;24.794;2024-01-15T13:01:57;153801.47;;;4.79;99.15
5350;BME280;2697;42.144;24.794;2024-01-15T13:04:23;153848.66;;;4.98;97.11